Terminal Aerodrome Forecast
Issued by NWS Sioux Falls, SD

Home | Current Version | Previous Version | Graphics & Text | Print | Product List | Glossary On
Versions: 1 2 3 4 5 6 7 8 9 10 11 12 13 14 15 16
000
FTUS43 KFSD 251613 AAB
TAFFSD
TAF AMD
KFSD 251613Z 2516/2612 23005KT P6SM OVC025
     FM251900 22010KT P6SM BKN035
      TEMPO 2521/2523 4SM TSRA OVC025CB
     FM260000 34006KT P6SM SCT035 BKN070
     FM260900 01005KT 3SM BR OVC010=

USA.gov is the U.S. government's official web portal to all federal, state and local government web resources and services.